createdAt,value
2019-06-01T00:00:23.396Z,101790.14
2019-06-01T00:01:25.597Z,101790.52
2019-06-01T00:02:28.231Z,101787.91
2019-06-01T00:03:30.458Z,101786.98
2019-06-01T00:04:33.050Z,101790.91
2019-06-01T00:05:35.263Z,101782.52
2019-06-01T00:06:38.643Z,101786.98
2019-06-01T00:07:41.061Z,101779.14
2019-06-01T00:08:44.982Z,101783.06
2019-06-01T00:09:49.621Z,101776.91
2019-06-01T00:10:52.335Z,101774.29
2019-06-01T00:11:54.547Z,101774.67
2019-06-01T00:12:57.139Z,101769.44
2019-06-01T00:13:59.361Z,101773.52
2019-06-01T00:15:02.068Z,101768.90
2019-06-01T00:16:04.268Z,101772.59
2019-06-01T00:17:06.872Z,101773.36
2019-06-01T00:18:09.103Z,101771.28
2019-06-01T00:19:11.713Z,101772.98
2019-06-01T00:20:13.959Z,101770.36
2019-06-01T00:21:16.617Z,101766.44
2019-06-01T00:22:18.827Z,101764.21
2019-06-01T00:23:21.463Z,101766.44
2019-06-01T00:24:23.634Z,101765.13
2019-06-01T00:25:26.232Z,101769.05
2019-06-01T00:26:28.461Z,101772.98
2019-06-01T00:27:31.059Z,101767.75
2019-06-01T00:28:33.282Z,101765.52
2019-06-01T00:29:35.886Z,101769.44
2019-06-01T00:30:38.110Z,101771.28
2019-06-01T00:31:41.230Z,101762.90
2019-06-01T00:32:43.552Z,101766.83
2019-06-01T00:33:47.323Z,101771.28
2019-06-01T00:34:49.957Z,101766.83
2019-06-01T00:35:52.542Z,101772.05
2019-06-01T00:36:54.779Z,101772.05
2019-06-01T00:37:57.409Z,101769.44
2019-06-01T00:38:59.670Z,101772.05
2019-06-01T00:40:02.317Z,101766.83
2019-06-01T00:41:04.515Z,101767.21
2019-06-01T00:42:07.147Z,101765.36
2019-06-01T00:43:09.382Z,101763.83
2019-06-01T00:44:11.977Z,101765.90
2019-06-01T00:45:14.191Z,101759.75
2019-06-01T00:46:16.806Z,101764.21
2019-06-01T00:47:19.052Z,101758.05
2019-06-01T00:48:21.652Z,101753.20
2019-06-01T00:49:25.203Z,101754.13
2019-06-01T00:50:27.777Z,101755.44
2019-06-01T00:51:30.014Z,101751.90
2019-06-01T00:52:32.658Z,101752.28
2019-06-01T00:53:34.889Z,101750.21
2019-06-01T00:54:37.497Z,101752.44
2019-06-01T00:55:39.729Z,101751.52
2019-06-01T00:56:43.462Z,101749.28
2019-06-01T00:57:45.784Z,101749.28
2019-06-01T00:58:48.359Z,101750.21
2019-06-01T00:59:53.145Z,101747.98
2019-06-01T01:00:55.302Z,101746.67
2019-06-01T01:01:57.550Z,101751.90
2019-06-01T01:03:00.175Z,101742.20
2019-06-01T01:04:02.387Z,101750.21
2019-06-01T01:05:04.990Z,101746.13
2019-06-01T01:06:07.219Z,101741.83
2019-06-01T01:07:09.805Z,101746.13
2019-06-01T01:08:12.063Z,101753.20
2019-06-01T01:09:14.724Z,101749.82
2019-06-01T01:10:16.950Z,101749.67
2019-06-01T01:11:19.538Z,101751.52
2019-06-01T01:12:21.733Z,101751.90
2019-06-01T01:13:25.267Z,101744.83
2019-06-01T01:14:27.474Z,101745.75
2019-06-01T01:15:30.081Z,101746.13
2019-06-01T01:16:32.297Z,101747.98
2019-06-01T01:17:34.891Z,101746.52
2019-06-01T01:18:37.121Z,101744.05
2019-06-01T01:19:39.729Z,101739.98
2019-06-01T01:20:41.935Z,101747.44
2019-06-01T01:21:45.694Z,101741.83
2019-06-01T01:22:48.614Z,101740.52
2019-06-01T01:23:53.033Z,101739.20
2019-06-01T01:24:56.509Z,101738.82
2019-06-01T01:25:59.137Z,101739.98
2019-06-01T01:27:01.362Z,101739.59
2019-06-01T01:28:03.975Z,101736.97
2019-06-01T01:29:06.192Z,101740.52
2019-06-01T01:30:08.793Z,101731.36
2019-06-01T01:31:14.061Z,101743.13
2019-06-01T01:32:15.270Z,101737.36
2019-06-01T01:33:17.473Z,101733.97
2019-06-01T01:34:20.074Z,101739.05
2019-06-01T01:35:22.269Z,101740.90
2019-06-01T01:36:24.909Z,101734.36
2019-06-01T01:37:27.121Z,101736.97
2019-06-01T01:38:29.725Z,101732.13
2019-06-01T01:39:31.938Z,101729.90
2019-06-01T01:40:34.536Z,101737.74
2019-06-01T01:41:36.791Z,101731.75
2019-06-01T01:42:39.370Z,101722.98
2019-06-01T01:43:41.578Z,101721.67
2019-06-01T01:44:44.173Z,101718.13
2019-06-01T01:45:46.410Z,101722.98
2019-06-01T01:46:49.014Z,101725.98
2019-06-01T01:47:51.240Z,101720.74
2019-06-01T01:48:54.174Z,101717.74
2019-06-01T01:49:56.542Z,101720.36
2019-06-01T01:50:59.141Z,101716.82
2019-06-01T01:52:01.666Z,101715.52
2019-06-01T01:53:04.284Z,101711.05
2019-06-01T01:54:06.488Z,101714.59
2019-06-01T01:55:09.083Z,101719.44
2019-06-01T01:56:11.285Z,101715.90
2019-06-01T01:57:13.925Z,101719.44
2019-06-01T01:58:16.146Z,101715.52
2019-06-01T01:59:18.744Z,101720.36
2019-06-01T02:00:20.950Z,101719.82
2019-06-01T02:01:23.546Z,101720.74
2019-06-01T02:02:25.818Z,101714.59
2019-06-01T02:03:28.416Z,101712.90
2019-06-01T02:04:30.662Z,101716.82
2019-06-01T02:05:33.268Z,101714.20
2019-06-01T02:06:35.482Z,101714.59
2019-06-01T02:07:38.099Z,101714.20
2019-06-01T02:08:40.295Z,101714.20
2019-06-01T02:09:42.834Z,101709.36
2019-06-01T02:10:45.047Z,101712.36
2019-06-01T02:11:47.636Z,101708.98
2019-06-01T02:12:49.859Z,101706.74
2019-06-01T02:13:53.623Z,101707.13
2019-06-01T02:14:55.899Z,101709.75
2019-06-01T02:15:58.512Z,101704.52
2019-06-01T02:17:02.354Z,101706.74
2019-06-01T02:18:05.038Z,101703.98
2019-06-01T02:19:07.241Z,101706.74
2019-06-01T02:20:09.860Z,101700.97
2019-06-01T02:21:12.077Z,101699.67
2019-06-01T02:22:14.677Z,101700.59
2019-06-01T02:23:16.924Z,101705.44
2019-06-01T02:24:19.518Z,101702.82
2019-06-01T02:25:21.724Z,101705.82
2019-06-01T02:26:24.333Z,101701.36
2019-06-01T02:27:26.541Z,101700.97
2019-06-01T02:28:29.148Z,101696.12
2019-06-01T02:29:31.378Z,101702.28
2019-06-01T02:30:33.981Z,101700.97
2019-06-01T02:31:41.839Z,101706.20
2019-06-01T02:32:40.451Z,101703.59
2019-06-01T02:33:42.677Z,101703.98
2019-06-01T02:35:04.997Z,101702.66
2019-06-01T02:36:07.223Z,101704.70
2019-06-01T02:37:09.825Z,101707.90
2019-06-01T02:38:12.031Z,101698.17
2019-06-01T02:39:15.238Z,101706.59
2019-06-01T02:40:17.457Z,101705.63
2019-06-01T02:41:20.073Z,101700.05
2019-06-01T02:42:22.285Z,101703.59
2019-06-01T02:43:24.892Z,101700.78
2019-06-01T02:44:27.109Z,101701.36
2019-06-01T02:45:29.710Z,101699.48
2019-06-01T02:46:35.431Z,101697.44
2019-06-01T02:47:36.214Z,101696.86
2019-06-01T02:48:38.414Z,101696.12
2019-06-01T02:49:41.039Z,101700.40
2019-06-01T02:50:43.253Z,101698.17
2019-06-01T02:51:45.850Z,101696.12
2019-06-01T02:52:48.162Z,101700.78
2019-06-01T02:53:50.757Z,101702.09
2019-06-01T02:54:52.966Z,101696.86
2019-06-01T02:55:55.799Z,101694.63
2019-06-01T02:56:58.068Z,101694.25
2019-06-01T02:58:00.665Z,101695.55
2019-06-01T02:59:02.880Z,101692.55
2019-06-01T03:00:06.626Z,101689.94
2019-06-01T03:01:09.010Z,101684.71
2019-06-01T03:02:14.243Z,101686.41
2019-06-01T03:03:15.474Z,101683.25
2019-06-01T03:04:19.195Z,101690.90
2019-06-01T03:05:21.402Z,101684.17
2019-06-01T03:06:23.991Z,101685.09
2019-06-01T03:07:26.191Z,101687.70
2019-06-01T03:08:28.795Z,101685.09
2019-06-01T03:09:31.034Z,101684.17
2019-06-01T03:10:33.639Z,101686.41
2019-06-01T03:11:36.192Z,101687.70
2019-06-01T03:12:38.703Z,101683.40
2019-06-01T03:13:40.909Z,101681.56
2019-06-01T03:14:43.547Z,101682.86
2019-06-01T03:15:45.748Z,101685.09
2019-06-01T03:16:48.359Z,101679.86
2019-06-01T03:17:50.571Z,101680.25
2019-06-01T03:18:53.735Z,101684.17
2019-06-01T03:19:55.969Z,101684.17
2019-06-01T03:20:59.547Z,101689.02
2019-06-01T03:22:04.865Z,101683.25
2019-06-01T03:23:06.223Z,101681.56
2019-06-01T03:24:08.434Z,101681.56
2019-06-01T03:25:12.250Z,101675.41
2019-06-01T03:26:14.544Z,101674.63
2019-06-01T03:27:17.139Z,101675.02
2019-06-01T03:28:19.348Z,101674.63
2019-06-01T03:29:21.953Z,101672.41
2019-06-01T03:30:24.189Z,101677.09
2019-06-01T03:31:26.784Z,101676.33
2019-06-01T03:32:36.366Z,101678.94
2019-06-01T03:33:33.241Z,101674.63
2019-06-01T03:34:35.462Z,101680.25
2019-06-01T03:35:38.052Z,101673.71
2019-06-01T03:36:40.257Z,101680.63
2019-06-01T03:37:42.856Z,101681.02
2019-06-01T03:38:45.069Z,101674.09
2019-06-01T03:39:47.681Z,101676.71
2019-06-01T03:40:49.890Z,101672.41
2019-06-01T03:41:52.479Z,101680.63
2019-06-01T03:42:54.718Z,101676.71
2019-06-01T03:43:57.314Z,101671.86
2019-06-01T03:44:59.525Z,101674.86
2019-06-01T03:46:02.530Z,101678.40
2019-06-01T03:47:05.656Z,101676.17
2019-06-01T03:48:08.763Z,101676.17
2019-06-01T03:49:12.003Z,101676.71
2019-06-01T03:50:14.881Z,101674.48
2019-06-01T03:51:17.087Z,101674.48
2019-06-01T03:52:19.679Z,101672.25
2019-06-01T03:53:21.906Z,101676.17
2019-06-01T03:54:24.498Z,101681.94
2019-06-01T03:55:26.703Z,101674.86
2019-06-01T03:56:29.313Z,101673.55
2019-06-01T03:57:31.526Z,101677.09
2019-06-01T03:58:34.116Z,101672.79
2019-06-01T03:59:36.309Z,101671.86
2019-06-01T04:00:38.907Z,101674.48
2019-06-01T04:01:41.121Z,101673.02
2019-06-01T04:02:43.720Z,101669.63
2019-06-01T04:03:45.971Z,101672.63
2019-06-01T04:04:48.572Z,101679.71
2019-06-01T04:05:50.795Z,101674.86
2019-06-01T04:06:53.387Z,101674.86
2019-06-01T04:07:55.594Z,101671.33
2019-06-01T04:08:58.233Z,101672.25
2019-06-01T04:10:01.711Z,101668.71
2019-06-01T04:11:05.583Z,101677.48
2019-06-01T04:12:07.981Z,101679.17
2019-06-01T04:13:11.881Z,101674.86
2019-06-01T04:14:14.215Z,101675.25
2019-06-01T04:15:17.001Z,101677.48
2019-06-01T04:16:19.307Z,101678.25
2019-06-01T04:17:21.909Z,101674.86
2019-06-01T04:18:24.103Z,101674.86
2019-06-01T04:19:26.747Z,101673.94
2019-06-01T04:20:28.959Z,101682.71
2019-06-01T04:21:31.562Z,101676.55
2019-06-01T04:22:33.786Z,101679.56
2019-06-01T04:23:36.576Z,101674.86
2019-06-01T04:24:38.821Z,101677.86
2019-06-01T04:25:41.414Z,101680.48
2019-06-01T04:26:43.612Z,101670.79
2019-06-01T04:27:46.216Z,101672.63
2019-06-01T04:28:48.472Z,101670.79
2019-06-01T04:29:51.179Z,101676.94
2019-06-01T04:30:53.390Z,101673.94
2019-06-01T04:31:55.974Z,101677.86
2019-06-01T04:32:58.197Z,101683.48
2019-06-01T04:34:00.807Z,101672.48
2019-06-01T04:35:03.501Z,101672.63
2019-06-01T04:36:06.881Z,101667.41
2019-06-01T04:37:09.250Z,101666.48
2019-06-01T04:38:11.905Z,101663.48
2019-06-01T04:39:14.114Z,101664.41
2019-06-01T04:40:16.702Z,101669.09
2019-06-01T04:41:18.925Z,101665.17
2019-06-01T04:42:21.562Z,101661.78
2019-06-01T04:43:23.776Z,101663.87
2019-06-01T04:44:26.362Z,101659.02
2019-06-01T04:45:28.583Z,101656.02
2019-06-01T04:46:31.187Z,101658.63
2019-06-01T04:47:33.432Z,101659.95
2019-06-01T04:48:36.035Z,101661.25
2019-06-01T04:49:38.238Z,101660.86
2019-06-01T04:50:40.840Z,101661.25
2019-06-01T04:51:43.042Z,101659.02
2019-06-01T04:52:45.651Z,101660.86
2019-06-01T04:53:47.872Z,101655.25
2019-06-01T04:54:50.465Z,101653.41
2019-06-01T04:55:52.664Z,101651.17
2019-06-01T04:56:55.267Z,101658.63
2019-06-01T04:57:57.515Z,101661.25
2019-06-01T04:59:00.119Z,101663.71
2019-06-01T05:00:03.847Z,101657.71
2019-06-01T05:01:06.974Z,101665.17
2019-06-01T05:02:09.428Z,101670.02
2019-06-01T05:03:13.444Z,101666.09
2019-06-01T05:04:15.730Z,101662.02
2019-06-01T05:05:18.324Z,101666.48
2019-06-01T05:06:20.529Z,101663.87
2019-06-01T05:07:23.114Z,101667.41
2019-06-01T05:08:25.357Z,101662.94
2019-06-01T05:09:27.954Z,101666.09
2019-06-01T05:10:30.156Z,101667.02
2019-06-01T05:11:32.754Z,101662.55
2019-06-01T05:12:34.956Z,101667.79
2019-06-01T05:13:37.597Z,101664.25
2019-06-01T05:14:39.811Z,101670.02
2019-06-01T05:15:42.424Z,101663.87
2019-06-01T05:16:44.620Z,101665.17
2019-06-01T05:17:47.222Z,101665.17
2019-06-01T05:18:49.483Z,101665.55
2019-06-01T05:19:52.074Z,101657.33
2019-06-01T05:20:54.404Z,101662.17
2019-06-01T05:21:57.031Z,101663.48
2019-06-01T05:22:59.242Z,101650.79
2019-06-01T05:24:01.874Z,101645.56
2019-06-01T05:25:04.092Z,101645.17
2019-06-01T05:26:06.797Z,101633.80
2019-06-01T05:27:09.099Z,101632.48
2019-06-01T05:28:11.701Z,101625.02
2019-06-01T05:29:13.951Z,101615.10
2019-06-01T05:30:17.656Z,101620.87
2019-06-01T05:31:24.897Z,101616.41
2019-06-01T05:32:24.361Z,101607.25
2019-06-01T05:33:36.837Z,101602.41
2019-06-01T05:34:30.852Z,101602.95
2019-06-01T05:35:33.049Z,101601.64
2019-06-01T05:36:35.643Z,101605.56
2019-06-01T05:37:37.880Z,101611.72
2019-06-01T05:38:40.479Z,101611.72
2019-06-01T05:39:42.672Z,101606.48
2019-06-01T05:40:45.263Z,101608.17
2019-06-01T05:41:47.468Z,101611.33
2019-06-01T05:42:50.112Z,101615.64
2019-06-01T05:43:52.307Z,101614.72
2019-06-01T05:44:54.904Z,101613.80
2019-06-01T05:45:57.112Z,101616.02
2019-06-01T05:46:59.710Z,101621.25
2019-06-01T05:48:01.963Z,101612.48
2019-06-01T05:49:04.649Z,101605.95
2019-06-01T05:50:06.855Z,101606.72
2019-06-01T05:51:12.471Z,101608.03
2019-06-01T05:52:14.391Z,101618.10
2019-06-01T05:53:17.153Z,101607.64
2019-06-01T05:54:19.390Z,101604.48
2019-06-01T05:55:23.075Z,101612.87
2019-06-01T05:56:25.429Z,101610.25
2019-06-01T05:57:28.012Z,101612.87
2019-06-01T05:58:30.228Z,101615.10
2019-06-01T05:59:32.820Z,101608.03
2019-06-01T06:00:35.029Z,101611.18
2019-06-01T06:01:37.642Z,101614.18
2019-06-01T06:02:39.848Z,101615.48
2019-06-01T06:03:42.489Z,101611.72
2019-06-01T06:04:44.698Z,101602.02
2019-06-01T06:05:47.286Z,101610.80
2019-06-01T06:06:49.499Z,101603.88
2019-06-01T06:07:52.028Z,101603.88
2019-06-01T06:08:54.270Z,101613.02
2019-06-01T06:09:56.790Z,101616.56
2019-06-01T06:10:59.014Z,101612.25
2019-06-01T06:12:01.652Z,101601.98
2019-06-01T06:13:03.812Z,101601.98
2019-06-01T06:14:06.418Z,101584.02
2019-06-01T06:15:08.648Z,101574.87
2019-06-01T06:16:11.662Z,101575.64
2019-06-01T06:17:16.211Z,101575.83
2019-06-01T06:18:18.216Z,101581.05
2019-06-01T06:19:22.280Z,101581.41
2019-06-01T06:20:24.727Z,101587.95
2019-06-01T06:21:26.933Z,101604.59
2019-06-01T06:22:29.519Z,101610.56
2019-06-01T06:23:31.740Z,101618.79
2019-06-01T06:24:34.366Z,101621.41
2019-06-01T06:25:39.565Z,101629.25
2019-06-01T06:26:40.773Z,101645.33
2019-06-01T06:27:42.972Z,101652.79
2019-06-01T06:28:45.574Z,101646.64
2019-06-01T06:29:48.113Z,101627.79
2019-06-01T06:30:50.714Z,101626.48
2019-06-01T06:31:52.924Z,101632.09
2019-06-01T06:32:55.511Z,101633.02
2019-06-01T06:33:57.715Z,101636.95
2019-06-01T06:35:00.350Z,101632.09
2019-06-01T06:36:02.563Z,101634.72
2019-06-01T06:37:05.155Z,101642.56
2019-06-01T06:38:07.367Z,101643.87
2019-06-01T06:39:09.965Z,101647.41
2019-06-01T06:40:12.207Z,101651.33
2019-06-01T06:41:15.994Z,101651.33
2019-06-01T06:42:18.636Z,101653.94
2019-06-01T06:43:29.664Z,101656.94
2019-06-01T06:44:25.103Z,101657.86
2019-06-01T06:45:27.719Z,101651.71
2019-06-01T06:46:29.934Z,101643.87
2019-06-01T06:47:32.575Z,101643.87
2019-06-01T06:48:34.813Z,101637.33
2019-06-01T06:49:37.397Z,101645.71
2019-06-01T06:50:39.604Z,101645.71
2019-06-01T06:51:42.205Z,101646.09
2019-06-01T06:52:44.459Z,101652.63
2019-06-01T06:53:48.282Z,101647.79
2019-06-01T06:54:50.494Z,101646.64
2019-06-01T06:55:53.107Z,101642.17
2019-06-01T06:56:55.363Z,101642.71
2019-06-01T06:57:57.956Z,101638.41
2019-06-01T06:59:00.154Z,101636.17
2019-06-01T07:00:02.754Z,101640.09
2019-06-01T07:01:04.974Z,101638.79
2019-06-01T07:02:07.560Z,101632.63
2019-06-01T07:03:09.801Z,101629.64
2019-06-01T07:04:13.303Z,101627.94
2019-06-01T07:05:15.646Z,101629.64
2019-06-01T07:06:19.413Z,101639.33
2019-06-01T07:07:21.777Z,101641.02
2019-06-01T07:08:24.352Z,101645.87
2019-06-01T07:09:26.560Z,101643.63
2019-06-01T07:10:29.167Z,101640.63
2019-06-01T07:11:31.574Z,101632.25
2019-06-01T07:12:34.249Z,101628.13
2019-06-01T07:13:36.563Z,101618.79
2019-06-01T07:14:39.151Z,101625.87
2019-06-01T07:15:41.350Z,101621.59
2019-06-01T07:16:43.972Z,101622.90
2019-06-01T07:17:46.179Z,101621.20
2019-06-01T07:18:48.824Z,101620.82
2019-06-01T07:19:51.026Z,101616.52
2019-06-01T07:20:53.629Z,101618.59
2019-06-01T07:21:55.940Z,101615.59
2019-06-01T07:22:58.718Z,101610.90
2019-06-01T07:24:01.005Z,101608.82
2019-06-01T07:25:03.589Z,101602.28
2019-06-01T07:26:05.883Z,101603.97
2019-06-01T07:27:08.502Z,101597.44
2019-06-01T07:28:10.682Z,101601.89
2019-06-01T07:29:13.301Z,101598.89
2019-06-01T07:30:15.893Z,101593.13
2019-06-01T07:31:18.494Z,101601.51
2019-06-01T07:32:20.714Z,101599.81
2019-06-01T07:33:24.266Z,101599.43
2019-06-01T07:34:34.161Z,101602.43
2019-06-01T07:35:30.922Z,101599.43
2019-06-01T07:36:33.137Z,101601.66
2019-06-01T07:37:35.748Z,101600.36
2019-06-01T07:38:37.942Z,101594.59
2019-06-01T07:39:40.565Z,101597.73
2019-06-01T07:40:42.828Z,101605.20
2019-06-01T07:41:45.482Z,101597.73
2019-06-01T07:42:47.678Z,101599.43
2019-06-01T07:43:50.261Z,101604.28
2019-06-01T07:44:52.483Z,101600.89
2019-06-01T07:45:55.105Z,101604.81
2019-06-01T07:46:57.364Z,101600.89
2019-06-01T07:47:59.970Z,101601.42
2019-06-01T07:49:04.114Z,101604.42
2019-06-01T07:50:06.756Z,101597.89
2019-06-01T07:51:08.994Z,101601.27
2019-06-01T07:52:13.381Z,101598.66
2019-06-01T07:53:15.492Z,101599.58
2019-06-01T07:54:18.087Z,101610.05
2019-06-01T07:55:21.394Z,101598.12
2019-06-01T07:56:24.390Z,101615.27
2019-06-01T07:57:27.754Z,101608.34
2019-06-01T07:58:30.423Z,101612.66
2019-06-01T07:59:32.687Z,101613.20
2019-06-01T08:00:35.227Z,101610.97
2019-06-01T08:01:37.432Z,101605.34
2019-06-01T08:02:40.076Z,101606.27
2019-06-01T08:03:42.292Z,101605.34
2019-06-01T08:04:53.626Z,101604.05
2019-06-01T08:05:48.724Z,101597.89
2019-06-01T08:06:51.346Z,101603.50
2019-06-01T08:07:53.548Z,101606.51
2019-06-01T08:08:56.209Z,101607.81
2019-06-01T08:09:58.674Z,101607.43
2019-06-01T08:11:01.281Z,101601.42
2019-06-01T08:12:03.488Z,101602.20
2019-06-01T08:13:06.088Z,101604.42
2019-06-01T08:14:08.294Z,101601.81
2019-06-01T08:15:10.899Z,101608.34
2019-06-01T08:16:13.195Z,101607.97
2019-06-01T08:17:15.802Z,101600.12
2019-06-01T08:18:18.056Z,101614.50
2019-06-01T08:19:21.955Z,101593.58
2019-06-01T08:20:24.378Z,101597.50
2019-06-01T08:21:28.107Z,101599.34
2019-06-01T08:22:30.338Z,101598.81
2019-06-01T08:23:32.968Z,101599.73
2019-06-01T08:24:35.252Z,101600.50
2019-06-01T08:25:37.873Z,101603.13
2019-06-01T08:26:40.073Z,101599.88
2019-06-01T08:27:42.656Z,101600.66
2019-06-01T08:28:44.880Z,101607.20
2019-06-01T08:29:47.499Z,101602.89
2019-06-01T08:30:49.708Z,101602.89
2019-06-01T08:31:55.622Z,101600.66
2019-06-01T08:32:56.201Z,101609.81
2019-06-01T08:33:58.800Z,101603.27
2019-06-01T08:35:08.441Z,101603.27
2019-06-01T08:36:05.255Z,101604.19
2019-06-01T08:37:07.495Z,101605.50
2019-06-01T08:38:10.119Z,101599.88
2019-06-01T08:39:12.328Z,101600.80
2019-06-01T08:40:14.932Z,101605.50
2019-06-01T08:41:17.146Z,101601.58
2019-06-01T08:42:19.771Z,101605.12
2019-06-01T08:43:23.412Z,101598.19
2019-06-01T08:44:27.530Z,101592.42
2019-06-01T08:45:34.254Z,101601.58
2019-06-01T08:46:34.114Z,101597.27
2019-06-01T08:47:36.333Z,101596.73
2019-06-01T08:48:38.921Z,101601.04
2019-06-01T08:49:41.139Z,101603.80
2019-06-01T08:50:45.957Z,101592.81
2019-06-01T08:51:47.601Z,101598.58
2019-06-01T08:52:50.221Z,101605.12
2019-06-01T08:53:52.415Z,101602.11
2019-06-01T08:54:55.047Z,101600.80
2019-06-01T08:55:57.245Z,101603.42
2019-06-01T08:56:59.839Z,101602.11
2019-06-01T08:58:02.050Z,101607.73
2019-06-01T08:59:04.647Z,101603.80
2019-06-01T09:00:07.008Z,101605.50
2019-06-01T09:01:09.596Z,101605.89
2019-06-01T09:02:11.974Z,101614.66
2019-06-01T09:03:14.557Z,101611.50
2019-06-01T09:04:16.781Z,101609.81
2019-06-01T09:05:24.292Z,101607.58
2019-06-01T09:06:23.231Z,101621.58
2019-06-01T09:07:26.862Z,101619.73
2019-06-01T09:08:29.137Z,101612.81
2019-06-01T09:09:33.025Z,101623.66
2019-06-01T09:10:35.602Z,101616.34
2019-06-01T09:11:38.338Z,101621.19
2019-06-01T09:12:40.552Z,101609.27
2019-06-01T09:13:43.138Z,101603.13
2019-06-01T09:14:45.344Z,101611.12
2019-06-01T09:15:47.931Z,101605.89
2019-06-01T09:16:50.260Z,101605.89
2019-06-01T09:17:52.853Z,101602.89
2019-06-01T09:18:55.093Z,101612.81
2019-06-01T09:19:57.682Z,101612.42
2019-06-01T09:20:59.916Z,101610.73
2019-06-01T09:22:02.512Z,101611.66
2019-06-01T09:23:04.726Z,101611.12
2019-06-01T09:24:07.319Z,101612.04
2019-06-01T09:25:09.521Z,101612.04
2019-06-01T09:26:12.132Z,101612.04
2019-06-01T09:27:14.362Z,101614.27
2019-06-01T09:28:17.016Z,101609.66
2019-06-01T09:29:19.192Z,101609.42
2019-06-01T09:30:21.875Z,101614.27
2019-06-01T09:31:24.080Z,101611.50
2019-06-01T09:32:27.849Z,101612.42
2019-06-01T09:33:30.193Z,101616.34
2019-06-01T09:34:32.740Z,101618.97
2019-06-01T09:35:52.581Z,101621.97
2019-06-01T09:36:39.249Z,101615.05
2019-06-01T09:37:41.489Z,101617.13
2019-06-01T09:38:44.064Z,101618.42
2019-06-01T09:39:46.267Z,101629.42
2019-06-01T09:40:49.149Z,101630.58
2019-06-01T09:41:51.446Z,101625.50
2019-06-01T09:42:54.045Z,101624.05
2019-06-01T09:43:56.251Z,101621.05
2019-06-01T09:44:58.853Z,101627.73
2019-06-01T09:46:01.093Z,101631.66
2019-06-01T09:47:03.692Z,101630.34
2019-06-01T09:48:05.932Z,101628.12
2019-06-01T09:49:08.507Z,101627.58
2019-06-01T09:50:10.767Z,101624.97
2019-06-01T09:51:13.335Z,101630.20
2019-06-01T09:52:15.528Z,101624.58
2019-06-01T09:53:18.147Z,101630.34
2019-06-01T09:54:20.362Z,101632.05
2019-06-01T09:55:22.973Z,101633.35
2019-06-01T09:56:25.198Z,101634.27
2019-06-01T09:57:27.900Z,101634.66
2019-06-01T09:58:30.251Z,101639.50
2019-06-01T09:59:34.033Z,101638.20
2019-06-01T10:00:41.535Z,101642.12
2019-06-01T10:01:40.821Z,101640.04
2019-06-01T10:02:43.031Z,101638.20
2019-06-01T10:03:45.618Z,101647.35
2019-06-01T10:04:47.816Z,101651.28
2019-06-01T10:06:01.506Z,101641.20
2019-06-01T10:06:54.372Z,101641.20
2019-06-01T10:07:56.975Z,101643.28
2019-06-01T10:08:59.184Z,101646.97
2019-06-01T10:10:01.774Z,101653.50
2019-06-01T10:11:03.990Z,101648.27
2019-06-01T10:12:06.589Z,101650.50
2019-06-01T10:13:08.803Z,101649.97
2019-06-01T10:14:11.466Z,101645.27
2019-06-01T10:15:13.815Z,101652.20
2019-06-01T10:16:16.386Z,101658.35
2019-06-01T10:17:18.523Z,101653.50
2019-06-01T10:18:21.118Z,101652.34
2019-06-01T10:19:23.314Z,101652.34
2019-06-01T10:20:25.856Z,101652.73
2019-06-01T10:21:28.058Z,101649.34
2019-06-01T10:22:30.984Z,101664.31
2019-06-01T10:23:34.451Z,101659.61
2019-06-01T10:24:37.307Z,101658.31
2019-06-01T10:25:39.498Z,101660.15
2019-06-01T10:26:42.083Z,101660.15
2019-06-01T10:27:44.389Z,101663.16
2019-06-01T10:28:46.982Z,101654.37
2019-06-01T10:29:49.183Z,101664.46
2019-06-01T10:30:51.791Z,101662.62
2019-06-01T10:31:53.998Z,101659.81
2019-06-01T10:32:56.585Z,101670.66
2019-06-01T10:33:58.944Z,101663.73
2019-06-01T10:35:01.518Z,101668.43
2019-06-01T10:36:19.064Z,101657.43
2019-06-01T10:37:08.058Z,101667.51
2019-06-01T10:38:10.247Z,101660.43
2019-06-01T10:39:12.848Z,101663.43
2019-06-01T10:40:15.081Z,101663.59
2019-06-01T10:41:17.671Z,101665.28
2019-06-01T10:42:19.859Z,101673.66
2019-06-01T10:43:22.443Z,101666.73
2019-06-01T10:44:24.651Z,101668.23
2019-06-01T10:45:27.320Z,101667.08
2019-06-01T10:46:29.469Z,101665.77
2019-06-01T10:47:32.062Z,101666.30
2019-06-01T10:48:34.546Z,101670.38
2019-06-01T10:49:38.010Z,101660.30
2019-06-01T10:50:40.677Z,101664.77
2019-06-01T10:51:43.365Z,101659.53
2019-06-01T10:52:45.593Z,101667.92
2019-06-01T10:53:48.294Z,101662.92
2019-06-01T10:54:50.491Z,101663.30
2019-06-01T10:55:53.100Z,101662.23
2019-06-01T10:56:55.337Z,101664.31
2019-06-01T10:57:57.935Z,101665.97
2019-06-01T10:59:00.772Z,101667.13
2019-06-01T11:00:03.440Z,101670.66
2019-06-01T11:01:05.639Z,101675.89
2019-06-01T11:02:08.258Z,101672.73
2019-06-01T11:03:10.452Z,101676.28
2019-06-01T11:04:13.065Z,101676.28
2019-06-01T11:05:15.266Z,101677.97
2019-06-01T11:06:17.858Z,101679.28
2019-06-01T11:07:20.094Z,101681.51
2019-06-01T11:08:22.733Z,101680.59
2019-06-01T11:09:24.961Z,101687.66
2019-06-01T11:10:27.555Z,101681.51
2019-06-01T11:11:29.763Z,101685.97
2019-06-01T11:12:32.977Z,101685.43
2019-06-01T11:13:35.294Z,101688.97
2019-06-01T11:14:39.009Z,101690.66
2019-06-01T11:15:41.382Z,101685.05
2019-06-01T11:16:44.252Z,101684.66
2019-06-01T11:17:46.602Z,101688.77
2019-06-01T11:18:49.198Z,101687.47
2019-06-01T11:19:51.405Z,101688.39
2019-06-01T11:20:53.993Z,101691.55
2019-06-01T11:21:56.199Z,101691.92
2019-06-01T11:22:58.823Z,101690.63
2019-06-01T11:24:01.028Z,101689.31
2019-06-01T11:25:03.684Z,101688.39
2019-06-01T11:26:05.845Z,101685.23
2019-06-01T11:27:08.369Z,101696.62
2019-06-01T11:28:10.583Z,101697.16
2019-06-01T11:29:13.111Z,101697.55
2019-06-01T11:30:15.296Z,101690.08
2019-06-01T11:31:17.896Z,101694.93
2019-06-01T11:32:20.087Z,101694.16
2019-06-01T11:33:22.734Z,101693.77
2019-06-01T11:34:24.942Z,101693.77
2019-06-01T11:35:27.462Z,101694.16
2019-06-01T11:36:29.679Z,101701.23
2019-06-01T11:37:32.348Z,101690.63
2019-06-01T11:38:34.739Z,101695.85
2019-06-01T11:39:38.471Z,101698.47
2019-06-01T11:40:40.864Z,101688.92
2019-06-01T11:41:44.669Z,101693.23
2019-06-01T11:42:47.065Z,101694.55
2019-06-01T11:43:49.609Z,101698.85
2019-06-01T11:44:51.818Z,101704.63
2019-06-01T11:45:54.403Z,101702.39
2019-06-01T11:46:56.624Z,101708.01
2019-06-01T11:47:59.201Z,101711.93
2019-06-01T11:49:01.439Z,101712.85
2019-06-01T11:50:04.013Z,101714.16
2019-06-01T11:51:06.219Z,101720.31
2019-06-01T11:52:08.811Z,101713.78
2019-06-01T11:53:11.028Z,101724.24
2019-06-01T11:54:13.645Z,101715.09